createdAt,value
2023-04-07T00:01:52.508Z,101012.97
2023-04-07T00:08:27.386Z,101020.81
2023-04-07T00:10:58.647Z,101026.00
2023-04-07T00:13:30.607Z,101018.66
2023-04-07T00:16:01.698Z,101022.78
2023-04-07T00:18:32.361Z,101024.38
2023-04-07T00:21:02.954Z,101023.28
2023-04-07T00:23:36.315Z,101019.53
2023-04-07T00:26:07.242Z,101006.13
2023-04-07T00:28:37.982Z,101014.00
2023-04-07T00:31:08.698Z,101020.22
2023-04-07T00:33:39.623Z,101010.03
2023-04-07T00:36:10.658Z,101020.41
2023-04-07T00:38:44.667Z,100996.28
2023-04-07T00:41:16.035Z,101021.81
2023-04-07T00:43:46.645Z,101001.09
2023-04-07T00:46:17.632Z,101000.19
2023-04-07T00:48:48.441Z,101018.56
2023-04-07T00:51:19.651Z,101009.25
2023-04-07T00:53:53.234Z,101025.66
2023-04-07T00:56:24.655Z,101023.84
2023-04-07T00:58:55.590Z,101017.78
2023-04-07T01:01:30.794Z,101011.69
2023-04-07T01:04:05.618Z,101012.06
2023-04-07T01:06:46.971Z,101012.06
2023-04-07T01:09:26.178Z,101020.25
2023-04-07T01:12:05.455Z,101011.69
2023-04-07T01:14:43.202Z,100994.03
2023-04-07T01:17:38.512Z,101000.81
2023-04-07T01:20:15.450Z,100995.63
2023-04-07T01:22:54.160Z,100990.63
2023-04-07T01:25:52.592Z,101001.19
2023-04-07T01:28:43.447Z,100998.47
2023-04-07T01:31:18.596Z,101007.38
2023-04-07T01:33:51.367Z,100994.88
2023-04-07T01:36:25.665Z,101001.13
2023-04-07T01:38:57.137Z,100984.34
2023-04-07T01:41:30.362Z,101007.00
2023-04-07T01:44:02.660Z,101004.69
2023-04-07T01:46:36.978Z,101001.13
2023-04-07T01:49:08.686Z,101015.22
2023-04-07T01:51:40.386Z,100998.78
2023-04-07T01:54:11.849Z,100999.84
2023-04-07T01:56:42.862Z,101000.34
2023-04-07T01:59:13.742Z,101012.06
2023-04-07T02:01:47.442Z,101001.56
2023-04-07T02:04:25.065Z,101004.38
2023-04-07T02:07:03.373Z,100989.91
2023-04-07T02:09:43.472Z,101005.63
2023-04-07T02:12:16.312Z,101001.84
2023-04-07T02:15:01.570Z,100986.97
2023-04-07T02:17:38.216Z,101001.28
2023-04-07T02:20:11.222Z,101006.28
2023-04-07T02:22:42.838Z,101007.69
2023-04-07T02:25:27.761Z,100993.91
2023-04-07T02:27:59.980Z,101008.72
2023-04-07T02:30:31.596Z,100996.78
2023-04-07T02:33:04.999Z,101001.56
2023-04-07T02:35:35.851Z,101001.19
2023-04-07T02:38:10.023Z,101009.56
2023-04-07T02:40:41.424Z,101007.78
2023-04-07T02:43:12.130Z,101004.53
2023-04-07T02:45:45.709Z,101005.97
2023-04-07T02:48:22.967Z,101004.22
2023-04-07T02:50:54.203Z,101012.19
2023-04-07T02:53:24.940Z,101015.91
2023-04-07T02:55:55.966Z,101014.44
2023-04-07T02:58:26.701Z,101014.66
2023-04-07T03:00:57.372Z,101011.25
2023-04-07T03:03:34.502Z,101011.94
2023-04-07T03:06:13.461Z,100999.44
2023-04-07T03:08:57.086Z,101003.72
2023-04-07T03:11:27.593Z,101016.19
2023-04-07T03:14:00.646Z,101004.06
2023-04-07T03:16:34.289Z,101003.66
2023-04-07T03:19:13.237Z,101013.44
2023-04-07T03:21:47.988Z,101014.66
2023-04-07T03:24:18.628Z,101014.28
2023-04-07T03:26:51.600Z,101013.00
2023-04-07T03:29:28.385Z,101017.59
2023-04-07T03:31:59.134Z,101018.81
2023-04-07T03:34:33.603Z,101016.97
2023-04-07T03:37:04.296Z,101018.69
2023-04-07T03:39:39.491Z,101019.41
2023-04-07T03:42:23.793Z,101017.41
2023-04-07T03:44:58.585Z,101012.75
2023-04-07T03:47:29.659Z,101011.88
2023-04-07T03:50:07.992Z,101013.66
2023-04-07T03:52:47.398Z,101012.75
2023-04-07T03:55:26.849Z,101006.91
2023-04-07T03:58:02.257Z,101010.25
2023-04-07T04:00:36.289Z,101007.59
2023-04-07T04:03:13.241Z,101016.25
2023-04-07T04:05:59.203Z,101018.34
2023-04-07T04:08:33.875Z,101025.44
2023-04-07T04:11:04.754Z,101024.94
2023-04-07T04:13:41.221Z,101027.44
2023-04-07T04:16:14.971Z,101004.50
2023-04-07T04:18:46.899Z,101034.72
2023-04-07T04:21:21.680Z,101029.75
2023-04-07T04:23:52.574Z,101032.00
2023-04-07T04:26:26.254Z,101030.22
2023-04-07T04:29:00.979Z,101035.53
2023-04-07T04:31:31.675Z,101032.31
2023-04-07T04:34:03.729Z,101038.00
2023-04-07T04:36:38.428Z,101037.09
2023-04-07T04:39:10.267Z,101037.28
2023-04-07T04:41:41.987Z,101039.41
2023-04-07T04:44:14.391Z,101047.78
2023-04-07T04:46:46.145Z,101049.19
2023-04-07T04:49:19.132Z,101050.56
2023-04-07T04:51:55.222Z,101045.41
2023-04-07T04:54:25.913Z,101052.16
2023-04-07T04:56:57.439Z,101052.16
2023-04-07T04:59:28.188Z,101064.28
2023-04-07T05:02:05.581Z,101059.81
2023-04-07T05:04:36.878Z,101063.19
2023-04-07T05:07:24.700Z,101059.44
2023-04-07T05:09:56.316Z,101027.56
2023-04-07T05:12:28.054Z,101068.78
2023-04-07T05:15:03.039Z,101074.66
2023-04-07T05:17:34.233Z,101041.09
2023-04-07T05:20:08.161Z,101064.91
2023-04-07T05:22:44.379Z,101062.09
2023-04-07T05:25:17.791Z,101067.88
2023-04-07T05:27:50.676Z,101051.00
2023-04-07T05:30:22.285Z,101067.56
2023-04-07T05:32:52.947Z,101069.03
2023-04-07T05:35:36.660Z,101065.72
2023-04-07T05:38:14.840Z,101067.50
2023-04-07T05:40:46.499Z,101072.00
2023-04-07T05:43:24.146Z,101074.06
2023-04-07T05:45:55.573Z,101066.28
2023-04-07T05:48:29.720Z,101074.06
2023-04-07T05:51:00.900Z,101064.41
2023-04-07T05:53:34.418Z,101070.59
2023-04-07T05:56:05.648Z,101065.47
2023-04-07T05:58:48.720Z,101069.91
2023-04-07T06:01:20.629Z,101081.84
2023-04-07T06:03:52.398Z,101058.53
2023-04-07T06:06:26.538Z,101077.09
2023-04-07T06:08:59.988Z,101083.50
2023-04-07T06:11:30.606Z,101073.66
2023-04-07T06:14:01.575Z,101079.88
2023-04-07T06:16:32.183Z,101084.72
2023-04-07T06:19:02.737Z,101091.53
2023-04-07T06:21:33.440Z,101093.66
2023-04-07T06:24:06.770Z,101089.56
2023-04-07T06:26:39.216Z,101092.56
2023-04-07T06:29:10.137Z,101092.78
2023-04-07T06:31:41.270Z,101092.22
2023-04-07T06:34:15.311Z,101102.59
2023-04-07T06:36:46.732Z,101099.22
2023-04-07T06:39:20.224Z,101102.97
2023-04-07T06:41:50.827Z,101114.94
2023-04-07T06:44:21.511Z,101109.44
2023-04-07T06:46:53.535Z,101110.25
2023-04-07T06:49:24.191Z,101108.63
2023-04-07T06:51:55.091Z,101110.34
2023-04-07T06:54:28.285Z,101123.00
2023-04-07T06:56:58.930Z,101113.00
2023-04-07T06:59:29.544Z,101113.03
2023-04-07T07:02:00.329Z,101122.91
2023-04-07T07:04:31.146Z,101117.78
2023-04-07T07:07:01.851Z,101126.94
2023-04-07T07:09:37.363Z,101121.13
2023-04-07T07:12:08.620Z,101127.22
2023-04-07T07:14:39.397Z,101129.00
2023-04-07T07:17:10.030Z,101116.88
2023-04-07T07:19:40.970Z,101109.38
2023-04-07T07:22:11.729Z,101137.97
2023-04-07T07:24:44.928Z,101131.91
2023-04-07T07:27:16.177Z,101137.28
2023-04-07T07:29:47.372Z,101140.84
2023-04-07T07:32:17.983Z,101142.66
2023-04-07T07:34:48.578Z,101144.44
2023-04-07T07:37:19.153Z,101150.16
2023-04-07T07:39:52.756Z,101130.84
2023-04-07T07:42:23.366Z,101136.19
2023-04-07T07:44:54.166Z,101139.00
2023-04-07T07:47:25.200Z,101142.41
2023-04-07T07:49:56.042Z,101140.66
2023-04-07T07:52:27.293Z,101151.50
2023-04-07T07:55:04.312Z,101155.78
2023-04-07T07:57:35.070Z,101152.19
2023-04-07T08:00:06.125Z,101147.72
2023-04-07T08:02:44.096Z,101161.09
2023-04-07T08:05:14.937Z,101162.19
2023-04-07T08:07:47.085Z,101156.56
2023-04-07T08:10:20.554Z,101137.75
2023-04-07T08:12:51.203Z,101159.41
2023-04-07T08:15:22.062Z,101156.69
2023-04-07T08:17:54.687Z,101144.47
2023-04-07T08:20:26.836Z,101163.75
2023-04-07T08:22:57.459Z,101169.78
2023-04-07T08:25:31.046Z,101164.66
2023-04-07T08:28:01.770Z,101165.03
2023-04-07T08:30:32.480Z,101168.00
2023-04-07T08:33:03.247Z,101168.47
2023-04-07T08:35:34.015Z,101172.88
2023-04-07T08:38:05.996Z,101167.53
2023-04-07T08:40:39.269Z,101173.63
2023-04-07T08:43:13.454Z,101181.31
2023-04-07T08:45:45.308Z,101186.28
2023-04-07T08:48:19.863Z,101183.22
2023-04-07T08:50:54.652Z,101179.25
2023-04-07T08:53:30.400Z,101181.47
2023-04-07T08:56:04.804Z,101177.56
2023-04-07T08:58:35.619Z,101177.25
2023-04-07T09:01:08.767Z,101175.91
2023-04-07T09:03:39.998Z,101182.16
2023-04-07T09:06:11.048Z,101179.56
2023-04-07T09:08:41.775Z,101178.44
2023-04-07T09:11:15.318Z,101183.63
2023-04-07T09:13:46.318Z,101175.00
2023-04-07T09:16:17.603Z,101179.31
2023-04-07T09:18:48.492Z,101178.06
2023-04-07T09:21:19.216Z,101184.97
2023-04-07T09:23:50.804Z,101186.09
2023-04-07T09:26:26.395Z,101181.88
2023-04-07T09:28:58.588Z,101177.28
2023-04-07T09:31:48.337Z,101182.44
2023-04-07T09:34:29.679Z,101185.72
2023-04-07T09:37:01.592Z,101168.44
2023-04-07T09:39:32.422Z,101173.78
2023-04-07T09:42:10.099Z,101173.97
2023-04-07T09:44:43.990Z,101175.50
2023-04-07T09:47:15.080Z,101177.41
2023-04-07T09:49:57.068Z,101179.56
2023-04-07T09:52:49.717Z,101180.06
2023-04-07T09:55:22.032Z,101174.31
2023-04-07T09:57:56.275Z,101171.69
2023-04-07T10:00:26.757Z,101170.69
2023-04-07T10:02:58.353Z,101171.88
2023-04-07T10:05:30.837Z,101171.94
2023-04-07T10:08:02.232Z,101171.34
2023-04-07T10:10:34.202Z,101169.00
2023-04-07T10:13:08.165Z,101156.47
2023-04-07T10:15:39.288Z,101160.47
2023-04-07T10:18:11.401Z,101161.06
2023-04-07T10:20:43.547Z,101167.47
2023-04-07T10:23:22.387Z,101163.75
2023-04-07T10:25:56.795Z,101147.84
2023-04-07T10:28:31.785Z,101167.28
2023-04-07T10:31:02.917Z,101161.22
2023-04-07T10:33:49.527Z,101174.28
2023-04-07T10:36:21.012Z,101166.88
2023-04-07T10:39:25.308Z,101167.16
2023-04-07T10:41:56.119Z,101153.06
2023-04-07T10:44:53.597Z,101169.69
2023-04-07T10:47:24.210Z,101175.03
2023-04-07T10:50:20.124Z,101174.13
2023-04-07T10:52:52.697Z,101161.38
2023-04-07T10:55:34.618Z,101165.22
2023-04-07T10:58:29.503Z,101171.16
2023-04-07T11:01:24.013Z,101176.63
2023-04-07T11:04:05.021Z,101173.06
2023-04-07T11:06:35.851Z,101172.94
2023-04-07T11:09:06.809Z,101177.97
2023-04-07T11:11:43.106Z,101184.22
2023-04-07T11:14:13.894Z,101175.91
2023-04-07T11:16:47.578Z,101171.00
2023-04-07T11:19:18.766Z,101177.97
2023-04-07T11:21:49.469Z,101166.09
2023-04-07T11:24:35.177Z,101178.56
2023-04-07T11:27:06.790Z,101175.72
2023-04-07T11:29:37.837Z,101183.00
2023-04-07T11:32:11.443Z,101179.41
2023-04-07T11:34:42.876Z,101185.63
2023-04-07T11:37:23.400Z,101171.78
2023-04-07T11:39:57.174Z,101173.66
2023-04-07T11:42:37.504Z,101174.44
2023-04-07T11:45:09.548Z,101180.19
2023-04-07T11:47:43.828Z,101169.78
2023-04-07T11:50:14.618Z,101169.97
2023-04-07T11:52:45.569Z,101164.28
2023-04-07T11:55:24.406Z,101177.94
2023-04-07T11:57:55.567Z,101172.94
2023-04-07T12:00:26.554Z,101170.72
2023-04-07T12:02:59.922Z,101170.22
2023-04-07T12:05:45.486Z,101166.66
2023-04-07T12:08:16.931Z,101174.22
2023-04-07T12:10:48.595Z,101184.00
2023-04-07T12:13:19.701Z,101181.00
2023-04-07T12:15:50.730Z,101169.69
2023-04-07T12:18:25.299Z,101176.66
2023-04-07T12:20:56.256Z,101180.09
2023-04-07T12:23:26.978Z,101187.66
2023-04-07T12:25:57.502Z,101176.09
2023-04-07T12:28:28.302Z,101168.16
2023-04-07T12:30:59.011Z,101165.56
2023-04-07T12:33:32.183Z,101168.84
2023-04-07T12:36:03.103Z,101170.31
2023-04-07T12:38:33.803Z,101172.63
2023-04-07T12:41:04.324Z,101176.53
2023-04-07T12:43:35.803Z,101175.06
2023-04-07T12:46:06.711Z,101179.28
2023-04-07T12:48:40.360Z,101165.94
2023-04-07T12:51:11.230Z,101171.44
2023-04-07T12:53:42.008Z,101183.78
2023-04-07T12:56:14.265Z,101153.34
2023-04-07T12:58:44.849Z,101166.19
2023-04-07T13:01:15.570Z,101176.53
2023-04-07T13:03:49.095Z,101176.63
2023-04-07T13:06:20.245Z,101181.63
2023-04-07T13:08:51.032Z,101167.78
2023-04-07T13:11:22.057Z,101175.16
2023-04-07T13:13:54.875Z,101162.38
2023-04-07T13:16:26.688Z,101172.91
2023-04-07T13:18:59.982Z,101176.44
2023-04-07T13:24:04.190Z,101178.81
2023-04-07T13:26:34.774Z,101170.81
2023-04-07T13:29:05.442Z,101174.97
2023-04-07T13:31:36.165Z,101170.31
2023-04-07T13:34:09.491Z,101167.09
2023-04-07T13:36:40.381Z,101172.91
2023-04-07T13:39:11.361Z,101160.34
2023-04-07T13:41:41.972Z,101165.50
2023-04-07T13:44:12.801Z,101161.47
2023-04-07T13:46:43.936Z,101171.50
2023-04-07T13:49:17.172Z,101163.50
2023-04-07T13:51:47.791Z,101171.63
2023-04-07T13:54:19.669Z,101169.56
2023-04-07T13:56:51.344Z,101162.78
2023-04-07T13:59:21.937Z,101175.03
2023-04-07T14:01:52.713Z,101174.94
2023-04-07T14:04:26.170Z,101159.53
2023-04-07T14:06:57.362Z,101158.03
2023-04-07T14:09:27.845Z,101133.41
2023-04-07T14:11:58.552Z,101167.31
2023-04-07T14:14:29.102Z,101166.44
2023-04-07T14:16:59.788Z,101165.19
2023-04-07T14:19:33.696Z,101162.41
2023-04-07T14:22:04.284Z,101164.78
2023-04-07T14:24:34.951Z,101156.78
2023-04-07T14:27:05.802Z,101159.19
2023-04-07T14:29:36.725Z,101158.16
2023-04-07T14:32:07.434Z,101160.38
2023-04-07T14:34:40.646Z,101163.41
2023-04-07T14:37:11.986Z,101128.34
2023-04-07T14:39:48.458Z,101159.88
2023-04-07T14:42:26.765Z,101175.03
2023-04-07T14:44:57.337Z,101170.94
2023-04-07T14:47:28.316Z,101167.66
2023-04-07T14:50:01.664Z,101172.03
2023-04-07T14:52:32.665Z,101169.97
2023-04-07T14:55:03.496Z,101168.88
2023-04-07T14:57:34.224Z,101168.03
2023-04-07T15:00:07.615Z,101171.13
2023-04-07T15:02:38.842Z,101172.34
2023-04-07T15:05:13.726Z,101174.72
2023-04-07T15:07:46.049Z,101172.84
2023-04-07T15:10:17.362Z,101172.28
2023-04-07T15:12:48.932Z,101149.75
2023-04-07T15:15:19.949Z,101186.22
2023-04-07T15:17:50.677Z,101171.59
2023-04-07T15:20:24.064Z,101177.38
2023-04-07T15:22:54.682Z,101174.81
2023-04-07T15:25:25.772Z,101169.19
2023-04-07T15:27:56.570Z,101184.94
2023-04-07T15:30:27.611Z,101174.56
2023-04-07T15:33:01.757Z,101155.50
2023-04-07T15:35:34.604Z,101174.97
2023-04-07T15:38:05.202Z,101168.16
2023-04-07T15:40:39.187Z,101175.47
2023-04-07T15:43:11.360Z,101167.63
2023-04-07T15:45:45.135Z,101186.97
2023-04-07T15:48:16.066Z,101174.78
2023-04-07T15:50:49.805Z,101188.91
2023-04-07T15:53:20.660Z,101183.28
2023-04-07T15:55:51.431Z,101188.66
2023-04-07T15:58:22.158Z,101190.53
2023-04-07T16:00:52.939Z,101193.31
2023-04-07T16:03:23.660Z,101195.84
2023-04-07T16:05:57.292Z,101199.47
2023-04-07T16:08:28.090Z,101191.31
2023-04-07T16:10:58.769Z,101199.34
2023-04-07T16:13:29.443Z,101198.59
2023-04-07T16:16:00.714Z,101207.53
2023-04-07T16:18:31.555Z,101212.78
2023-04-07T16:21:04.836Z,101212.47
2023-04-07T16:23:35.454Z,101213.53
2023-04-07T16:26:06.649Z,101216.19
2023-04-07T16:28:37.866Z,101214.75
2023-04-07T16:31:09.018Z,101217.88
2023-04-07T16:33:39.669Z,101224.69
2023-04-07T16:36:13.301Z,101225.00
2023-04-07T16:38:43.907Z,101219.53
2023-04-07T16:41:14.686Z,101218.66
2023-04-07T16:43:45.842Z,101222.34
2023-04-07T16:46:16.766Z,101231.13
2023-04-07T16:48:47.909Z,101230.81
2023-04-07T16:51:22.930Z,101239.88
2023-04-07T16:53:53.745Z,101228.31
2023-04-07T16:56:26.206Z,101240.63
2023-04-07T16:58:56.879Z,101245.94
2023-04-07T17:01:31.076Z,101241.06
2023-04-07T17:04:01.482Z,101247.28
2023-04-07T17:06:34.880Z,101242.22
2023-04-07T17:09:05.556Z,101242.66
2023-04-07T17:11:36.116Z,101258.41
2023-04-07T17:14:06.745Z,101258.97
2023-04-07T17:16:37.754Z,101261.78
2023-04-07T17:19:08.587Z,101228.75
2023-04-07T17:21:42.269Z,101274.59
2023-04-07T17:24:24.091Z,101274.03
2023-04-07T17:26:55.069Z,101270.41
2023-04-07T17:29:29.205Z,101284.63
2023-04-07T17:32:00.127Z,101295.59
2023-04-07T17:34:31.043Z,101303.09
2023-04-07T17:37:04.301Z,101300.84
2023-04-07T17:39:34.939Z,101300.84
2023-04-07T17:42:05.481Z,101312.53
2023-04-07T17:44:36.099Z,101320.66
2023-04-07T17:47:06.734Z,101321.66
2023-04-07T17:49:37.537Z,101321.44
2023-04-07T17:52:11.498Z,101319.59
2023-04-07T17:54:42.168Z,101329.13
2023-04-07T17:57:14.645Z,101333.94
2023-04-07T17:59:45.599Z,101331.94
2023-04-07T18:02:16.620Z,101345.16
2023-04-07T18:04:47.953Z,101350.69
2023-04-07T18:07:21.554Z,101354.31
2023-04-07T18:09:52.536Z,101354.50
2023-04-07T18:12:23.000Z,101359.22
2023-04-07T18:14:53.753Z,101366.50
2023-04-07T18:17:24.495Z,101362.47
2023-04-07T18:19:55.033Z,101378.22
2023-04-07T18:22:30.073Z,101380.44
2023-04-07T18:25:01.248Z,101377.09
2023-04-07T18:27:32.287Z,101382.38
2023-04-07T18:30:02.917Z,101371.84
2023-04-07T18:32:33.759Z,101392.53
2023-04-07T18:35:04.447Z,101398.63
2023-04-07T18:37:37.915Z,101403.69
2023-04-07T18:40:10.317Z,101398.91
2023-04-07T18:42:41.776Z,101400.00
2023-04-07T18:45:13.425Z,101406.09
2023-04-07T18:47:44.115Z,101418.88
2023-04-07T18:50:14.871Z,101425.00
2023-04-07T18:52:48.319Z,101426.97
2023-04-07T18:55:20.878Z,101423.78
2023-04-07T18:57:52.089Z,101429.34
2023-04-07T19:00:22.839Z,101426.47
2023-04-07T19:02:53.613Z,101430.09
2023-04-07T19:05:25.843Z,101446.06
2023-04-07T19:07:59.329Z,101444.81
2023-04-07T19:10:30.027Z,101450.19
2023-04-07T19:13:00.866Z,101455.56
2023-04-07T19:15:34.292Z,101457.38
2023-04-07T19:18:05.289Z,101453.25
2023-04-07T19:20:36.290Z,101457.03
2023-04-07T19:23:09.577Z,101468.88
2023-04-07T19:25:44.375Z,101450.06
2023-04-07T19:28:16.536Z,101470.84
2023-04-07T19:30:47.478Z,101477.81
2023-04-07T19:33:18.397Z,101481.41
2023-04-07T19:35:49.208Z,101477.09
2023-04-07T19:38:22.509Z,101476.91
2023-04-07T19:40:53.399Z,101485.50
2023-04-07T19:43:24.064Z,101483.34
2023-04-07T19:45:54.847Z,101483.91
2023-04-07T19:48:25.631Z,101485.66
2023-04-07T19:50:56.444Z,101486.19
2023-04-07T19:53:29.701Z,101488.53
2023-04-07T19:56:00.401Z,101489.94
2023-04-07T19:58:31.237Z,101499.81
2023-04-07T20:01:04.337Z,101500.72
2023-04-07T20:03:35.434Z,101504.09
2023-04-07T20:06:06.403Z,101502.66
2023-04-07T20:08:39.737Z,101501.06
2023-04-07T20:11:13.232Z,101496.03
2023-04-07T20:13:44.600Z,101485.81
2023-04-07T20:16:15.460Z,101514.09
2023-04-07T20:18:46.582Z,101491.16
2023-04-07T20:21:17.225Z,101504.25
2023-04-07T20:23:50.415Z,101514.06
2023-04-07T20:26:22.348Z,101510.50
2023-04-07T20:28:53.043Z,101505.84
2023-04-07T20:31:23.912Z,101518.16
2023-04-07T20:33:54.896Z,101521.38
2023-04-07T20:36:26.089Z,101521.19
2023-04-07T20:38:59.793Z,101522.63
2023-04-07T20:41:30.804Z,101524.03
2023-04-07T20:44:01.554Z,101532.41
2023-04-07T20:46:32.699Z,101530.75
2023-04-07T20:49:04.114Z,101535.22
2023-04-07T20:51:35.156Z,101540.75
2023-04-07T20:54:08.482Z,101530.88
2023-04-07T20:56:39.159Z,101546.63
2023-04-07T20:59:09.859Z,101545.53
2023-04-07T21:01:40.771Z,101543.03
2023-04-07T21:04:12.792Z,101546.06
2023-04-07T21:06:44.257Z,101550.88
2023-04-07T21:09:18.042Z,101551.56
2023-04-07T21:11:48.925Z,101550.13
2023-04-07T21:14:19.564Z,101554.22
2023-04-07T21:16:50.279Z,101555.78
2023-04-07T21:19:20.979Z,101555.25
2023-04-07T21:21:51.667Z,101555.03
2023-04-07T21:24:24.990Z,101558.44
2023-04-07T21:26:56.767Z,101555.16
2023-04-07T21:29:27.531Z,101558.91
2023-04-07T21:31:58.246Z,101562.13
2023-04-07T21:34:29.699Z,101568.91
2023-04-07T21:37:00.233Z,101570.50
2023-04-07T21:39:33.404Z,101565.31
2023-04-07T21:42:04.362Z,101575.31
2023-04-07T21:44:34.871Z,101569.78
2023-04-07T21:47:05.436Z,101568.69
2023-04-07T21:49:38.832Z,101574.56
2023-04-07T21:52:09.849Z,101568.09
2023-04-07T21:54:43.543Z,101572.06
2023-04-07T21:57:14.393Z,101565.78
2023-04-07T21:59:45.066Z,101573.81
2023-04-07T22:02:15.610Z,101574.88
2023-04-07T22:04:46.470Z,101565.25
2023-04-07T22:07:17.216Z,101581.88
2023-04-07T22:09:50.650Z,101579.69
2023-04-07T22:12:21.392Z,101585.63
2023-04-07T22:14:52.108Z,101570.25
2023-04-07T22:17:22.677Z,101565.16
2023-04-07T22:19:53.255Z,101566.97
2023-04-07T22:22:23.872Z,101581.50
2023-04-07T22:24:57.111Z,101581.19
2023-04-07T22:27:28.026Z,101581.84
2023-04-07T22:29:58.640Z,101583.44
2023-04-07T22:32:29.239Z,101586.13
2023-04-07T22:35:00.844Z,101582.75
2023-04-07T22:37:31.802Z,101592.38
2023-04-07T22:40:05.048Z,101590.09
2023-04-07T22:42:35.681Z,101575.78
2023-04-07T22:45:07.014Z,101583.84
2023-04-07T22:47:38.096Z,101591.34
2023-04-07T22:50:10.170Z,101593.47
2023-04-07T22:52:40.860Z,101591.13
2023-04-07T22:55:14.284Z,101596.84
2023-04-07T22:57:45.053Z,101587.34
2023-04-07T23:00:16.262Z,101599.47
2023-04-07T23:02:46.918Z,101594.97
2023-04-07T23:05:17.555Z,101601.78
2023-04-07T23:07:48.314Z,101602.16
2023-04-07T23:10:21.531Z,101595.69
2023-04-07T23:12:54.924Z,101592.28
2023-04-07T23:15:25.778Z,101597.66
2023-04-07T23:17:56.724Z,101602.47
2023-04-07T23:20:27.433Z,101606.91
2023-04-07T23:22:58.181Z,101602.63
2023-04-07T23:25:31.540Z,101598.34
2023-04-07T23:28:02.128Z,101608.72
2023-04-07T23:30:32.709Z,101597.56
2023-04-07T23:33:03.173Z,101613.34
2023-04-07T23:35:33.938Z,101601.22
2023-04-07T23:38:04.724Z,101610.88
2023-04-07T23:40:37.985Z,101604.97
2023-04-07T23:43:08.916Z,101612.31
2023-04-07T23:45:39.847Z,101612.66
2023-04-07T23:48:10.775Z,101603.22
2023-04-07T23:50:41.947Z,101608.72
2023-04-07T23:53:12.659Z,101606.16
2023-04-07T23:55:45.810Z,101607.88
2023-04-07T23:58:16.446Z,101600.88
